McMinnville, Oregon
Current Conditions -  °F | °C
As of 5:53 AM on Saturday 25 Oct 2014 (Local Time) from KMMV Reporting Station
Overcast Overcast  
Wind Chill: 52°   Ceiling: 7000
Heat Index: 52°   Visibility: 10mi
Dew Point: 49°   Wind: 0mph
Humidity: 89%   Direction: NA
Pressure: 29.57"   Gusts: NA
Location:  45.21°N, 123.19°W
Report Text: KMMV 251253Z AUTO 00000KT 10SM OVC070 11/09 A2957 RMK AO2 RAB01E49 SLP011 P0002 T01110094
Loading
Personal Weather Stations






























Interactive Weather Map
Tropical Storm Tracking
New forecast layout! Learn more

10-Day Weather Forecast

Advertisements
Track Severe Weather on mobile